Time;durP1;ratioP1;P1;durP2;ratioP2;P2;SDS_P1;SDS_P2;PMS_P1;PMS_P2;Temp;Humidity;BMP_temperature;BMP_pressure;BME280_temperature;BME280_humidity;BME280_pressure;Samples;Min_cycle;Max_cycle;Signal;HPM_P1;HPM_P2
2021/04/21 00:01:25;;;;;;;3.43;3.13;;;25.80;54.80;;;;;;5013292;28;20486;-83
2021/04/21 00:03:54;;;;;;;3.47;3.10;;;25.90;54.80;;;;;;5013742;28;20443;-84
2021/04/21 00:06:22;;;;;;;3.70;3.50;;;25.80;54.80;;;;;;5013524;28;20447;-84
2021/04/21 00:08:50;;;;;;;3.40;3.20;;;25.80;54.80;;;;;;5013543;28;20489;-84
2021/04/21 00:11:17;;;;;;;3.63;3.43;;;25.80;54.70;;;;;;5013731;28;20501;-87
2021/04/21 00:13:45;;;;;;;3.40;3.10;;;25.80;54.80;;;;;;5013605;28;20436;-83
2021/04/21 00:16:13;;;;;;;4.37;3.30;;;25.80;54.70;;;;;;5013639;28;20481;-85
2021/04/21 00:18:42;;;;;;;3.60;3.40;;;25.80;54.70;;;;;;5013227;28;20469;-86
2021/04/21 00:21:09;;;;;;;3.50;3.30;;;25.80;54.70;;;;;;5013222;28;20493;-85
2021/04/21 00:23:37;;;;;;;3.87;3.67;;;25.80;54.70;;;;;;5013614;28;20864;-87
2021/04/21 00:26:09;;;;;;;3.67;3.30;;;25.80;54.70;;;;;;5013593;28;20807;-83
2021/04/21 00:28:38;;;;;;;3.60;3.40;;;25.80;54.70;;;;;;5013289;28;20803;-83
2021/04/21 00:31:07;;;;;;;3.63;3.43;;;25.80;54.70;;;;;;5013010;28;20483;-83
2021/04/21 00:33:35;;;;;;;3.43;3.23;;;25.80;54.70;;;;;;5013348;28;20446;-86
2021/04/21 00:36:05;;;;;;;3.90;3.70;;;25.80;54.70;;;;;;5013256;28;20468;-84
2021/04/21 00:38:35;;;;;;;3.20;3.00;;;25.70;54.60;;;;;;5013763;28;20791;-83
2021/04/21 00:41:10;;;;;;;3.17;2.97;;;25.70;54.60;;;;;;5013143;28;20487;-84
2021/04/21 00:43:43;;;;;;;2.97;2.80;;;25.70;54.60;;;;;;5013130;28;20447;-87
2021/04/21 00:46:13;;;;;;;3.80;3.60;;;25.70;54.70;;;;;;5016263;28;20544;-86
2021/04/21 00:48:49;;;;;;;3.70;3.40;;;25.70;54.60;;;;;;5016740;28;20446;-87
2021/04/21 00:51:24;;;;;;;3.17;2.97;;;25.70;54.60;;;;;;5016824;28;20509;-86
2021/04/21 00:53:57;;;;;;;4.10;3.80;;;25.70;54.60;;;;;;5016765;28;20454;-83
2021/04/21 00:56:33;;;;;;;3.50;3.30;;;25.70;54.70;;;;;;5016569;28;20442;-83
2021/04/21 00:59:06;;;;;;;3.50;3.30;;;25.70;54.60;;;;;;5016512;28;20449;-87
2021/04/21 01:01:34;;;;;;;3.77;3.47;;;25.70;54.60;;;;;;5016421;28;20884;-83
2021/04/21 01:04:02;;;;;;;3.13;2.93;;;25.70;54.70;;;;;;5016534;28;20509;-86
2021/04/21 01:06:33;;;;;;;3.30;3.10;;;25.70;54.60;;;;;;5016465;28;20443;-83
2021/04/21 01:09:02;;;;;;;3.27;3.07;;;25.70;54.60;;;;;;5016483;28;20443;-83
2021/04/21 01:11:34;;;;;;;3.43;3.23;;;25.70;54.60;;;;;;5016118;28;20447;-86
2021/04/21 01:14:06;;;;;;;2.80;2.60;;;25.70;54.60;;;;;;5016192;28;20447;-87
2021/04/21 01:16:33;;;;;;;3.70;3.50;;;25.70;54.60;;;;;;5016113;28;20458;-86
2021/04/21 01:19:07;;;;;;;3.27;3.07;;;25.60;54.60;;;;;;5016116;28;20489;-87
2021/04/21 01:21:39;;;;;;;3.50;3.30;;;25.70;54.60;;;;;;5016228;28;21000;-83
2021/04/21 01:24:19;;;;;;;3.20;3.00;;;25.60;54.60;;;;;;5016227;28;20435;-83
2021/04/21 01:26:54;;;;;;;3.10;2.90;;;25.60;54.50;;;;;;5016195;28;20532;-84
2021/04/21 01:29:26;;;;;;;3.00;2.80;;;25.60;54.60;;;;;;5024129;28;21022;-83
2021/04/21 01:31:55;;;;;;;3.60;3.40;;;25.60;55.10;;;;;;5017484;28;20478;-85
2021/04/21 01:34:23;;;;;;;3.43;3.23;;;25.60;54.50;;;;;;5015914;28;20442;-86
2021/04/21 01:36:51;;;;;;;3.20;3.00;;;25.60;54.50;;;;;;5015890;28;20439;-86
2021/04/21 01:39:18;;;;;;;3.13;2.93;;;25.60;54.50;;;;;;5015753;28;20444;-87
2021/04/21 01:41:51;;;;;;;2.90;2.70;;;25.60;54.50;;;;;;5015651;28;20858;-86
2021/04/21 01:44:22;;;;;;;3.20;3.00;;;25.60;54.50;;;;;;5015779;28;20442;-87
2021/04/21 01:46:56;;;;;;;3.40;3.20;;;25.60;54.40;;;;;;5015872;28;20470;-86
2021/04/21 01:49:53;;;;;;;3.60;3.40;;;25.60;54.40;;;;;;5015603;28;20525;-83
2021/04/21 01:52:49;;;;;;;3.10;2.90;;;25.60;54.40;;;;;;5015849;28;20475;-86
2021/04/21 01:55:41;;;;;;;3.10;2.90;;;25.60;54.40;;;;;;5014220;28;20458;-83
2021/04/21 01:58:18;;;;;;;3.30;3.10;;;25.60;54.40;;;;;;5014654;28;20818;-86
2021/04/21 02:00:50;;;;;;;3.20;3.00;;;25.60;54.40;;;;;;5015477;28;20490;-85
2021/04/21 02:03:22;;;;;;;3.30;3.10;;;25.60;54.40;;;;;;5015693;28;20531;-83
2021/04/21 02:06:25;;;;;;;3.40;3.20;;;25.50;54.40;;;;;;5015420;28;20451;-87
2021/04/21 02:09:02;;;;;;;3.63;3.43;;;25.50;54.30;;;;;;5015226;28;20495;-85
2021/04/21 02:11:33;;;;;;;3.13;2.93;;;25.50;54.40;;;;;;5015353;28;20439;-83
2021/04/21 02:14:15;;;;;;;3.03;2.83;;;25.50;54.40;;;;;;5015264;28;20439;-83
2021/04/21 02:16:49;;;;;;;3.57;3.37;;;25.50;54.30;;;;;;5015146;28;20450;-83
2021/04/21 02:19:31;;;;;;;3.23;3.03;;;25.50;54.30;;;;;;5014892;28;20478;-83
2021/04/21 02:22:10;;;;;;;3.33;3.13;;;25.50;54.30;;;;;;5015015;28;20967;-83
2021/04/21 02:24:48;;;;;;;3.43;3.23;;;25.50;54.30;;;;;;5014988;28;20435;-86
2021/04/21 02:27:26;;;;;;;3.60;3.40;;;25.50;54.30;;;;;;5015125;28;20453;-87
2021/04/21 02:29:58;;;;;;;3.50;3.30;;;25.50;54.30;;;;;;5014868;28;20439;-83
2021/04/21 02:32:35;;;;;;;3.40;3.20;;;25.50;54.20;;;;;;5014608;28;20466;-83
2021/04/21 02:35:12;;;;;;;3.83;3.63;;;25.50;54.20;;;;;;5015003;28;20849;-83
2021/04/21 02:37:54;;;;;;;2.97;2.77;;;25.50;54.20;;;;;;5014886;28;20439;-87
2021/04/21 02:40:27;;;;;;;3.53;3.30;;;25.50;54.10;;;;;;5014653;28;21022;-83
2021/04/21 02:43:00;;;;;;;3.13;2.93;;;25.50;54.20;;;;;;5014587;28;20850;-83
2021/04/21 02:45:33;;;;;;;3.60;3.40;;;25.40;54.10;;;;;;5014706;28;20447;-83
2021/04/21 02:48:06;;;;;;;3.77;3.57;;;25.60;54.20;;;;;;5014882;28;20446;-83
2021/04/21 02:50:37;;;;;;;3.20;3.00;;;25.50;54.10;;;;;;5014611;28;20858;-83
2021/04/21 02:53:17;;;;;;;3.60;3.40;;;25.50;54.10;;;;;;5014673;28;20441;-86
2021/04/21 02:55:56;;;;;;;3.50;3.30;;;25.50;54.10;;;;;;5014386;28;20694;-83
2021/04/21 02:58:30;;;;;;;3.87;3.67;;;25.50;54.10;;;;;;5014435;28;20439;-83
2021/04/21 03:01:05;;;;;;;3.10;2.90;;;25.50;54.10;;;;;;5014208;28;20492;-87
2021/04/21 03:03:38;;;;;;;3.57;3.37;;;25.50;54.10;;;;;;5014251;28;20450;-83
2021/04/21 03:06:09;;;;;;;3.50;3.30;;;25.50;54.10;;;;;;5014240;28;20777;-83
2021/04/21 03:08:39;;;;;;;3.37;3.17;;;25.50;54.10;;;;;;5013968;28;20999;-86
2021/04/21 03:11:11;;;;;;;2.90;2.70;;;25.40;54.00;;;;;;5014467;28;20800;-86
2021/04/21 03:13:45;;;;;;;3.27;3.07;;;25.40;54.00;;;;;;5014121;28;20506;-86
2021/04/21 03:16:14;;;;;;;3.20;3.00;;;25.50;54.00;;;;;;5014151;28;20447;-84
2021/04/21 03:18:44;;;;;;;3.60;3.40;;;25.40;53.90;;;;;;5013840;28;20470;-83
2021/04/21 03:21:15;;;;;;;4.17;3.97;;;25.60;54.10;;;;;;5014078;28;20841;-87
2021/04/21 03:23:44;;;;;;;4.07;3.87;;;25.50;54.00;;;;;;5013896;28;20443;-83
2021/04/21 03:26:12;;;;;;;4.57;4.37;;;25.40;54.00;;;;;;5013921;28;20454;-87
2021/04/21 03:28:41;;;;;;;3.60;3.30;;;25.40;54.00;;;;;;5014060;28;20809;-87
2021/04/21 03:31:10;;;;;;;4.33;4.13;;;25.40;54.00;;;;;;5013753;28;20834;-86
2021/04/21 03:33:41;;;;;;;4.30;4.10;;;25.40;53.90;;;;;;5013871;28;20799;-83
2021/04/21 03:36:09;;;;;;;3.90;3.70;;;25.40;53.90;;;;;;5013927;28;20439;-86
2021/04/21 03:38:36;;;;;;;3.60;3.40;;;25.40;53.90;;;;;;5013712;28;20445;-86
2021/04/21 03:41:02;;;;;;;4.07;3.87;;;25.40;53.90;;;;;;5013698;28;20491;-83
2021/04/21 03:43:29;;;;;;;3.27;3.07;;;25.40;53.90;;;;;;5013681;28;20496;-83
2021/04/21 03:45:55;;;;;;;4.13;3.93;;;25.40;53.90;;;;;;5013858;28;20451;-83
2021/04/21 03:48:22;;;;;;;3.40;3.20;;;25.40;53.90;;;;;;5013476;28;20810;-83
2021/04/21 03:50:52;;;;;;;4.27;3.97;;;25.40;53.90;;;;;;5013590;28;20937;-86
2021/04/21 03:53:23;;;;;;;3.90;3.70;;;25.40;53.90;;;;;;5013595;28;20450;-86
2021/04/21 03:55:53;;;;;;;4.33;4.03;;;25.40;53.80;;;;;;5013778;28;20461;-86
2021/04/21 03:58:22;;;;;;;3.57;3.37;;;25.40;53.90;;;;;;5013480;28;20478;-83
2021/04/21 04:00:56;;;;;;;3.90;3.70;;;25.40;53.80;;;;;;5013359;28;20490;-83
2021/04/21 04:03:26;;;;;;;3.67;3.47;;;25.40;53.80;;;;;;5013470;28;20450;-85
2021/04/21 04:05:58;;;;;;;3.73;3.53;;;25.40;53.90;;;;;;5013469;28;20457;-85
2021/04/21 04:08:27;;;;;;;3.23;3.03;;;25.40;53.80;;;;;;5013473;28;20440;-83
2021/04/21 04:10:55;;;;;;;4.00;3.70;;;25.60;54.00;;;;;;5013596;28;20449;-84
2021/04/21 04:13:25;;;;;;;3.70;3.50;;;25.40;53.80;;;;;;5013559;28;20443;-83
2021/04/21 04:15:52;;;;;;;3.30;3.10;;;25.40;53.80;;;;;;5013366;28;20446;-83
2021/04/21 04:18:22;;;;;;;4.07;3.77;;;25.40;53.80;;;;;;5013217;28;20818;-86
2021/04/21 04:20:51;;;;;;;3.50;3.30;;;25.40;53.90;;;;;;5015882;28;20478;-83
2021/04/21 04:23:19;;;;;;;3.30;3.10;;;25.40;53.90;;;;;;5017369;28;20441;-86
2021/04/21 04:25:50;;;;;;;2.93;2.73;;;25.40;53.90;;;;;;5017194;28;20469;-85
2021/04/21 04:28:19;;;;;;;3.30;3.10;;;25.40;53.90;;;;;;5017042;28;20446;-83
2021/04/21 04:30:46;;;;;;;3.23;3.03;;;25.40;53.90;;;;;;5016928;28;20483;-83
2021/04/21 04:33:15;;;;;;;3.53;3.33;;;25.40;53.90;;;;;;5017115;28;20443;-83
2021/04/21 04:35:42;;;;;;;3.87;3.60;;;25.40;53.90;;;;;;5017101;28;20439;-83
2021/04/21 04:38:09;;;;;;;4.20;3.90;;;25.40;53.90;;;;;;5016847;28;20926;-86
2021/04/21 04:40:36;;;;;;;3.30;3.10;;;25.40;54.00;;;;;;5016946;28;20482;-85
2021/04/21 04:43:03;;;;;;;2.53;2.43;;;25.40;54.00;;;;;;5016948;28;20504;-84
2021/04/21 04:45:32;;;;;;;3.60;3.40;;;25.40;54.00;;;;;;5016819;28;20452;-83
2021/04/21 04:48:00;;;;;;;3.20;3.00;;;25.40;54.00;;;;;;5016861;28;20452;-83
2021/04/21 04:50:26;;;;;;;3.40;3.20;;;25.40;54.00;;;;;;5016679;28;20470;-83
2021/04/21 04:52:56;;;;;;;3.50;3.30;;;25.40;54.00;;;;;;5016676;28;20945;-83
2021/04/21 04:55:24;;;;;;;3.00;2.80;;;25.40;54.00;;;;;;5016679;28;20442;-85
2021/04/21 04:57:52;;;;;;;3.40;3.20;;;25.40;54.00;;;;;;5016548;28;20446;-83
2021/04/21 05:00:21;;;;;;;2.87;2.70;;;25.40;54.00;;;;;;5016599;28;20477;-83
2021/04/21 05:02:54;;;;;;;3.20;3.00;;;25.40;54.00;;;;;;5016487;28;20439;-87
2021/04/21 05:05:21;;;;;;;3.20;3.00;;;25.40;54.00;;;;;;5016847;28;20450;-83
2021/04/21 05:07:53;;;;;;;3.60;3.30;;;25.40;54.00;;;;;;5016199;28;20463;-83
2021/04/21 05:10:25;;;;;;;3.70;3.40;;;25.40;54.00;;;;;;5016155;28;20446;-87
2021/04/21 05:12:53;;;;;;;3.40;3.20;;;25.40;54.00;;;;;;5016634;28;20466;-83
2021/04/21 05:15:56;;;;;;;3.40;3.20;;;25.40;54.00;;;;;;5016329;28;20458;-85
2021/04/21 05:19:10;;;;;;;3.53;3.33;;;25.40;54.00;;;;;;4985886;28;20453;-87
2021/04/21 05:22:20;;;;;;;3.20;3.00;;;25.40;54.00;;;;;;5016203;28;20493;-83
2021/04/21 05:25:45;;;;;;;3.53;3.33;;;25.40;54.00;;;;;;5016204;28;20763;-83
2021/04/21 05:28:58;;;;;;;3.50;3.30;;;25.40;54.00;;;;;;4955497;29;20445;-86
2021/04/21 05:32:01;;;;;;;2.50;2.30;;;25.40;54.10;;;;;;4924578;29;20476;-86
2021/04/21 05:35:21;;;;;;;3.43;3.23;;;25.40;54.10;;;;;;5015934;28;20452;-83
2021/04/21 05:38:21;;;;;;;3.00;2.80;;;25.40;54.10;;;;;;5016043;28;20448;-86
2021/04/21 05:41:00;;;;;;;3.73;3.53;;;25.40;54.20;;;;;;5015786;28;20490;-84
2021/04/21 05:44:02;;;;;;;3.40;3.20;;;25.40;54.10;;;;;;5015784;28;20443;-86
2021/04/21 05:47:09;;;;;;;3.47;3.27;;;25.40;54.10;;;;;;5015853;28;20521;-83
2021/04/21 05:50:22;;;;;;;3.47;3.27;;;25.40;54.10;;;;;;5015552;28;20465;-85
2021/04/21 05:53:25;;;;;;;3.70;3.50;;;25.40;54.10;;;;;;5015550;28;20457;-86
2021/04/21 05:56:25;;;;;;;2.93;2.80;;;25.40;54.20;;;;;;5015445;28;20445;-84
2021/04/21 05:59:31;;;;;;;3.10;2.90;;;25.40;54.20;;;;;;5015349;28;20446;-84
2021/04/21 06:01:58;;;;;;;3.30;3.10;;;25.50;54.10;;;;;;5015310;28;20483;-84
2021/04/21 06:04:25;;;;;;;3.30;3.10;;;25.50;54.20;;;;;;5015498;28;20441;-84
2021/04/21 06:07:05;;;;;;;2.80;2.60;;;25.50;54.10;;;;;;5015322;28;20478;-84
2021/04/21 06:09:31;;;;;;;3.57;3.37;;;25.50;54.10;;;;;;5015397;28;20781;-84
2021/04/21 06:12:05;;;;;;;3.40;3.20;;;25.50;54.10;;;;;;5015138;28;20455;-83
2021/04/21 06:14:32;;;;;;;2.60;2.50;;;25.50;54.00;;;;;;5015311;28;20452;-85
2021/04/21 06:16:58;;;;;;;3.50;3.30;;;25.60;54.40;;;;;;5015296;28;20446;-85
2021/04/21 06:19:26;;;;;;;3.63;3.43;;;25.60;54.20;;;;;;5015076;28;20460;-85
2021/04/21 06:21:53;;;;;;;3.40;3.20;;;25.50;54.00;;;;;;5015048;28;20506;-85
2021/04/21 06:24:21;;;;;;;3.53;3.33;;;25.60;53.90;;;;;;5015198;28;20443;-86
2021/04/21 06:26:48;;;;;;;5.00;3.50;;;25.80;54.10;;;;;;5014863;28;20451;-86
2021/04/21 06:29:14;;;;;;;3.30;3.00;;;25.60;54.00;;;;;;5014956;28;20797;-85
2021/04/21 06:31:43;;;;;;;3.50;3.30;;;25.60;54.00;;;;;;5014621;28;20483;-86
2021/04/21 06:34:11;;;;;;;4.13;3.07;;;25.60;54.00;;;;;;5015210;28;20520;-86
2021/04/21 06:36:42;;;;;;;4.00;3.70;;;25.70;54.10;;;;;;5014877;28;20815;-86
2021/04/21 06:39:10;;;;;;;3.67;3.43;;;25.70;54.10;;;;;;5014647;28;20447;-85
2021/04/21 06:41:37;;;;;;;3.60;3.30;;;25.80;54.20;;;;;;5014560;28;20481;-85
2021/04/21 06:44:04;;;;;;;3.37;3.17;;;25.70;54.10;;;;;;5014285;28;20537;-85
2021/04/21 06:46:30;;;;;;;3.50;3.30;;;25.70;54.20;;;;;;5014672;28;20437;-85
2021/04/21 06:48:58;;;;;;;2.73;2.60;;;25.70;54.10;;;;;;5014392;28;20473;-85
2021/04/21 06:51:27;;;;;;;3.50;3.30;;;25.70;54.20;;;;;;5014698;28;20440;-85
2021/04/21 06:53:54;;;;;;;2.67;2.47;;;25.80;54.20;;;;;;5014837;28;20796;-85
2021/04/21 06:56:30;;;;;;;2.87;2.67;;;25.80;54.40;;;;;;5014445;28;20443;-84
2021/04/21 06:58:57;;;;;;;3.00;2.80;;;25.80;54.30;;;;;;5014426;28;20929;-85
2021/04/21 07:01:28;;;;;;;3.20;2.90;;;25.80;54.30;;;;;;5013903;28;20545;-85
2021/04/21 07:04:12;;;;;;;3.73;3.53;;;25.80;54.30;;;;;;5015258;28;20443;-84
2021/04/21 07:06:39;;;;;;;6.77;5.17;;;25.80;53.70;;;;;;5006629;28;20451;-84
2021/04/21 07:09:12;;;;;;;3.70;3.23;;;25.80;52.90;;;;;;4998875;28;20467;-87
2021/04/21 07:11:39;;;;;;;3.63;3.33;;;25.80;53.20;;;;;;5014004;28;20922;-93
2021/04/21 07:14:06;;;;;;;3.10;2.90;;;25.80;53.10;;;;;;5014002;28;20462;-91
2021/04/21 07:16:34;;;;;;;3.23;3.03;;;25.70;53.40;;;;;;5013876;28;20449;-84
2021/04/21 07:19:04;;;;;;;2.77;2.57;;;25.80;53.80;;;;;;5004278;28;20487;-87
2021/04/21 07:21:31;;;;;;;3.50;3.17;;;25.90;54.10;;;;;;4999104;28;20553;-88
2021/04/21 07:24:01;;;;;;;3.03;2.77;;;25.80;54.10;;;;;;5002385;28;20459;-90
2021/04/21 07:26:29;;;;;;;3.00;2.53;;;25.80;54.10;;;;;;5013760;28;20451;-87
2021/04/21 07:28:57;;;;;;;3.80;2.20;;;25.90;54.20;;;;;;5016621;28;20443;-91
2021/04/21 07:31:23;;;;;;;3.20;3.00;;;25.90;54.20;;;;;;5014310;28;20478;-91
2021/04/21 07:33:58;;;;;;;3.20;3.00;;;26.00;54.20;;;;;;5013756;28;20964;-89
2021/04/21 07:36:26;;;;;;;3.17;2.97;;;26.00;53.70;;;;;;5013707;28;20446;-89
2021/04/21 07:38:54;;;;;;;4.13;3.83;;;26.00;53.60;;;;;;5013716;28;20466;-89
2021/04/21 07:41:33;;;;;;;3.97;3.33;;;25.90;53.50;;;;;;5013878;28;20495;-89
2021/04/21 07:44:00;;;;;;;3.57;3.37;;;26.00;53.60;;;;;;5013646;28;20991;-89
2021/04/21 07:46:27;;;;;;;5.50;3.10;;;25.90;53.60;;;;;;5013949;28;20521;-91
2021/04/21 07:48:54;;;;;;;3.80;3.50;;;25.90;53.60;;;;;;5013752;28;20464;-82
2021/04/21 07:51:41;;;;;;;3.80;3.50;;;26.00;53.90;;;;;;5013362;28;20450;-84
2021/04/21 07:54:33;;;;;;;3.63;3.33;;;26.00;53.70;;;;;;5013478;28;20446;-86
2021/04/21 07:57:10;;;;;;;4.00;2.87;;;26.00;53.70;;;;;;5020775;28;20504;-89
2021/04/21 07:59:40;;;;;;;3.30;3.00;;;26.00;53.90;;;;;;5060792;23;20490;-83
2021/04/21 08:02:15;;;;;;;3.60;3.40;;;26.00;53.50;;;;;;5031678;28;20573;-86
2021/04/21 08:05:06;;;;;;;3.53;3.20;;;26.20;53.30;;;;;;5017725;28;20446;-87
2021/04/21 08:07:39;;;;;;;3.30;3.00;;;26.00;53.50;;;;;;5014050;28;20515;-87
2021/04/21 08:10:09;;;;;;;3.10;2.80;;;26.00;53.80;;;;;;5017328;28;20447;-89
2021/04/21 08:12:37;;;;;;;2.60;2.40;;;26.00;53.90;;;;;;5017428;28;20511;-89
2021/04/21 08:15:07;;;;;;;4.77;3.10;;;26.10;53.90;;;;;;5016997;28;20497;-89
2021/04/21 08:17:52;;;;;;;5.10;3.77;;;26.10;53.80;;;;;;5017078;28;20435;-89
2021/04/21 08:20:26;;;;;;;6.50;4.27;;;26.20;53.70;;;;;;4997891;28;20538;-89
2021/04/21 08:22:54;;;;;;;8.57;7.77;;;26.20;53.00;;;;;;4997516;28;20451;-88
2021/04/21 08:25:21;;;;;;;7.83;6.97;;;26.10;52.00;;;;;;4997907;28;20468;-87
2021/04/21 08:27:47;;;;;;;9.33;8.40;;;26.10;51.80;;;;;;4997506;28;20469;-88
2021/04/21 08:30:15;;;;;;;9.17;8.40;;;26.00;51.90;;;;;;4997433;28;20440;-87
2021/04/21 08:32:42;;;;;;;9.13;8.03;;;26.00;51.80;;;;;;4997389;28;20452;-88
2021/04/21 08:35:10;;;;;;;10.30;9.00;;;26.00;51.60;;;;;;4997231;28;20947;-87
2021/04/21 08:37:36;;;;;;;8.50;7.70;;;26.00;51.50;;;;;;4997489;28;20453;-88
2021/04/21 08:40:03;;;;;;;9.60;8.60;;;25.90;51.50;;;;;;4997293;28;20438;-88
2021/04/21 08:42:31;;;;;;;10.70;7.07;;;25.80;51.20;;;;;;4997141;28;20451;-88
2021/04/21 08:44:58;;;;;;;7.10;5.53;;;25.90;51.30;;;;;;4997012;28;20796;-88
2021/04/21 08:47:25;;;;;;;7.30;6.57;;;26.00;51.60;;;;;;4997203;28;20452;-89
2021/04/21 08:49:54;;;;;;;7.37;5.37;;;25.80;51.70;;;;;;4997340;28;20594;-87
2021/04/21 08:52:23;;;;;;;6.47;5.90;;;26.00;51.90;;;;;;4996875;28;20450;-88
2021/04/21 08:54:54;;;;;;;5.87;4.60;;;26.00;52.00;;;;;;4996974;28;20573;-86
2021/04/21 08:57:20;;;;;;;5.33;4.93;;;26.00;51.70;;;;;;4996812;28;20906;-87
2021/04/21 08:59:47;;;;;;;13.03;6.30;;;26.00;51.40;;;;;;4996719;28;20475;-89
2021/04/21 09:02:15;;;;;;;7.30;6.07;;;26.00;50.90;;;;;;4992243;28;20506;-86
2021/04/21 09:04:43;;;;;;;4.80;4.40;;;26.00;51.00;;;;;;4989019;28;20439;-87
2021/04/21 09:07:09;;;;;;;6.33;4.30;;;26.10;51.50;;;;;;4978778;28;20444;-87
2021/04/21 09:09:36;;;;;;;4.93;3.70;;;26.10;51.30;;;;;;4988929;28;20460;-88
2021/04/21 09:12:03;;;;;;;4.57;4.17;;;26.20;51.40;;;;;;4982647;28;21113;-87
2021/04/21 09:14:31;;;;;;;4.33;3.30;;;26.20;51.50;;;;;;4988968;28;20449;-88
2021/04/21 09:16:58;;;;;;;4.23;3.60;;;26.20;51.30;;;;;;4987164;28;20440;-90
2021/04/21 09:19:24;;;;;;;5.57;3.80;;;26.30;51.40;;;;;;4982758;28;20971;-90
2021/04/21 09:22:08;;;;;;;3.23;2.93;;;26.30;51.40;;;;;;4990726;28;20527;-90
2021/04/21 09:24:37;;;;;;;4.50;3.27;;;26.40;51.40;;;;;;4983228;28;20513;-89
2021/04/21 09:27:24;;;;;;;4.80;3.17;;;26.40;51.20;;;;;;4993217;28;20531;-87
2021/04/21 09:30:09;;;;;;;3.77;2.30;;;26.50;51.30;;;;;;4978989;28;20452;-85
2021/04/21 09:32:44;;;;;;;3.60;2.73;;;26.50;51.20;;;;;;4985388;28;20767;-86
2021/04/21 09:35:16;;;;;;;4.20;2.83;;;26.60;51.20;;;;;;4982488;28;20449;-88
2021/04/21 09:37:43;;;;;;;3.53;2.60;;;26.70;51.20;;;;;;4977147;28;20457;-91
2021/04/21 09:40:12;;;;;;;2.90;2.70;;;26.70;51.00;;;;;;4977637;28;20446;-86
2021/04/21 09:42:39;;;;;;;6.50;2.77;;;26.70;51.10;;;;;;4981084;28;20996;-85
2021/04/21 09:45:07;;;;;;;5.60;3.00;;;26.70;51.40;;;;;;4984147;28;20504;-88
2021/04/21 09:47:34;;;;;;;4.40;2.50;;;26.70;51.30;;;;;;4987111;28;20496;-86
2021/04/21 09:50:00;;;;;;;3.03;2.60;;;26.70;51.30;;;;;;4997852;28;20461;-87
2021/04/21 09:52:28;;;;;;;5.30;2.77;;;26.80;51.40;;;;;;4983107;28;20859;-87
2021/04/21 09:54:56;;;;;;;3.30;3.00;;;26.80;51.40;;;;;;4981881;28;20945;-87
2021/04/21 09:57:27;;;;;;;3.90;2.80;;;26.90;51.40;;;;;;4992889;28;20443;-86
2021/04/21 09:59:58;;;;;;;7.17;2.93;;;27.00;51.30;;;;;;4984419;28;20992;-86
2021/04/21 10:02:34;;;;;;;3.77;2.30;;;27.00;51.40;;;;;;4981311;28;20556;-87
2021/04/21 10:05:24;;;;;;;6.53;3.00;;;26.90;51.60;;;;;;4982108;28;20444;-86
2021/04/21 10:08:12;;;;;;;3.20;1.93;;;27.00;51.60;;;;;;4979014;28;20446;-86
2021/04/21 10:11:07;;;;;;;5.07;2.90;;;27.10;51.60;;;;;;4990396;28;20808;-86
2021/04/21 10:13:45;;;;;;;2.67;2.47;;;27.10;51.70;;;;;;4977020;28;20478;-86
2021/04/21 10:16:12;;;;;;;3.10;2.50;;;27.10;51.60;;;;;;4975406;28;20942;-85
2021/04/21 10:18:40;;;;;;;2.63;2.40;;;27.10;51.60;;;;;;4977243;28;20469;-87
2021/04/21 10:21:07;;;;;;;3.17;2.80;;;27.20;51.60;;;;;;4989541;28;20853;-86
2021/04/21 10:23:34;;;;;;;3.60;2.80;;;27.30;51.60;;;;;;4990213;28;20454;-86
2021/04/21 10:26:05;;;;;;;7.10;3.17;;;27.30;51.70;;;;;;4986312;28;20811;-86
2021/04/21 10:28:32;;;;;;;3.93;2.37;;;27.30;51.70;;;;;;4980833;28;20440;-84
2021/04/21 10:31:01;;;;;;;3.77;2.10;;;27.30;51.70;;;;;;4991615;28;20441;-85
2021/04/21 10:33:27;;;;;;;4.83;2.40;;;27.30;51.70;;;;;;4990740;28;20445;-85
2021/04/21 10:35:55;;;;;;;2.63;2.43;;;27.30;51.80;;;;;;4992156;28;20540;-85
2021/04/21 10:38:23;;;;;;;2.93;2.60;;;27.30;51.80;;;;;;4992256;28;20508;-86
2021/04/21 10:40:50;;;;;;;3.80;2.80;;;27.20;51.90;;;;;;4993313;28;20474;-86
2021/04/21 10:43:37;;;;;;;3.10;2.33;;;27.30;51.90;;;;;;4987616;28;20446;-86
2021/04/21 10:46:04;;;;;;;2.40;2.20;;;27.30;51.90;;;;;;4977065;28;20934;-87
2021/04/21 10:48:41;;;;;;;2.73;2.40;;;27.20;52.00;;;;;;4978075;28;20465;-84
2021/04/21 10:51:33;;;;;;;4.37;2.33;;;27.20;52.00;;;;;;4978072;28;20451;-87
2021/04/21 10:54:02;;;;;;;2.30;2.10;;;27.20;52.00;;;;;;4978121;28;20442;-85
2021/04/21 10:56:28;;;;;;;2.80;2.37;;;27.20;51.90;;;;;;4977207;28;20441;-86
2021/04/21 10:58:56;;;;;;;2.77;2.30;;;27.30;51.80;;;;;;4975096;28;20475;-86
2021/04/21 11:01:30;;;;;;;2.20;2.00;;;27.40;51.90;;;;;;4974879;28;20495;-86
2021/04/21 11:03:57;;;;;;;1.93;1.73;;;27.30;51.90;;;;;;4975341;28;20446;-87
2021/04/21 11:06:45;;;;;;;2.20;2.00;;;27.30;52.00;;;;;;4974183;28;20536;-86
2021/04/21 11:09:12;;;;;;;2.50;2.30;;;27.30;52.10;;;;;;4974917;28;20932;-87
2021/04/21 11:11:40;;;;;;;2.33;1.83;;;27.30;52.10;;;;;;4975275;28;20482;-87
2021/04/21 11:14:08;;;;;;;3.73;2.90;;;27.30;52.20;;;;;;4975349;28;20952;-86
2021/04/21 11:16:40;;;;;;;3.30;2.73;;;27.30;52.30;;;;;;4974785;28;20454;-85
2021/04/21 11:19:30;;;;;;;3.10;2.80;;;27.30;52.90;;;;;;4974883;28;20822;-87
2021/04/21 11:22:20;;;;;;;3.30;3.00;;;27.30;53.80;;;;;;4971347;28;20497;-87
2021/04/21 11:25:20;;;;;;;4.30;2.93;;;27.30;54.40;;;;;;4975050;28;20795;-86
2021/04/21 11:27:47;;;;;;;2.63;2.43;;;27.30;54.90;;;;;;4974655;28;20448;-86
2021/04/21 11:30:50;;;;;;;3.23;2.90;;;27.10;55.30;;;;;;4974394;28;20458;-88
2021/04/21 11:33:58;;;;;;;10.33;9.33;;;27.10;55.10;;;;;;4974580;28;20488;-87
2021/04/21 11:36:49;;;;;;;10.13;9.23;;;27.10;55.10;;;;;;4974391;28;20475;-88
2021/04/21 11:39:31;;;;;;;8.83;7.93;;;27.10;54.70;;;;;;4974449;28;20497;-85
2021/04/21 11:42:15;;;;;;;4.53;4.13;;;27.00;53.80;;;;;;4974241;28;20494;-87
2021/04/21 11:44:57;;;;;;;4.83;4.33;;;27.10;52.50;;;;;;4974708;28;20504;-86
2021/04/21 11:47:40;;;;;;;4.60;4.10;;;27.00;51.40;;;;;;4974376;28;20454;-86
2021/04/21 11:50:22;;;;;;;5.40;4.60;;;26.80;51.30;;;;;;4974115;28;21043;-87
2021/04/21 11:52:56;;;;;;;4.20;3.80;;;26.70;51.40;;;;;;4974511;28;20438;-85
2021/04/21 11:55:25;;;;;;;4.83;4.10;;;26.70;51.50;;;;;;4974197;28;20525;-86
2021/04/21 11:57:54;;;;;;;6.07;4.57;;;26.60;51.50;;;;;;4974349;28;20933;-86
2021/04/21 12:00:25;;;;;;;4.23;3.80;;;26.60;51.50;;;;;;4974004;28;20481;-86
2021/04/21 12:02:51;;;;;;;3.50;3.27;;;26.50;51.40;;;;;;4974404;28;20469;-86
2021/04/21 12:05:22;;;;;;;5.87;3.50;;;26.50;51.30;;;;;;4974144;28;20446;-86
2021/04/21 12:07:49;;;;;;;4.10;3.10;;;26.50;51.30;;;;;;4974362;28;20507;-84
2021/04/21 12:10:18;;;;;;;3.60;3.30;;;26.50;51.40;;;;;;4974046;28;20448;-89
2021/04/21 12:12:44;;;;;;;3.93;3.53;;;26.50;51.40;;;;;;4974278;28;20484;-83
2021/04/21 12:15:12;;;;;;;3.30;3.03;;;26.50;51.30;;;;;;4974082;28;20451;-86
2021/04/21 12:17:57;;;;;;;3.20;3.00;;;26.50;51.30;;;;;;4974356;28;20877;-86
2021/04/21 12:20:27;;;;;;;3.20;2.63;;;26.50;51.20;;;;;;4974149;28;20460;-85
2021/04/21 12:22:54;;;;;;;3.07;2.83;;;26.50;51.20;;;;;;4974259;28;20449;-86
2021/04/21 12:25:23;;;;;;;4.10;2.80;;;26.50;51.30;;;;;;4974471;28;20502;-86
2021/04/21 12:27:51;;;;;;;2.83;2.63;;;26.50;51.20;;;;;;4973903;28;20446;-86
2021/04/21 12:30:19;;;;;;;3.70;3.10;;;26.50;51.90;;;;;;4974013;28;20475;-86
2021/04/21 12:32:46;;;;;;;3.70;3.03;;;26.50;51.20;;;;;;4973965;28;20805;-86
2021/04/21 12:35:14;;;;;;;3.63;2.73;;;26.50;51.20;;;;;;4974081;28;20449;-86
2021/04/21 12:37:40;;;;;;;3.03;2.73;;;26.50;51.20;;;;;;4973841;28;20450;-86
2021/04/21 12:40:22;;;;;;;4.23;3.17;;;26.50;51.20;;;;;;4974346;28;20850;-86
2021/04/21 12:42:49;;;;;;;5.13;3.37;;;26.50;51.30;;;;;;4977387;28;20488;-85
2021/04/21 12:45:26;;;;;;;2.80;2.50;;;26.50;51.30;;;;;;4977389;28;20437;-81
2021/04/21 12:47:52;;;;;;;2.83;2.20;;;26.50;51.30;;;;;;4976951;28;21072;-83
2021/04/21 12:50:29;;;;;;;4.80;2.10;;;26.60;51.40;;;;;;4976709;28;20450;-81
2021/04/21 12:53:13;;;;;;;2.27;2.07;;;26.70;51.40;;;;;;4976660;28;20520;-81
2021/04/21 12:55:40;;;;;;;2.67;2.47;;;26.80;51.50;;;;;;4976252;28;20455;-82
2021/04/21 12:58:07;;;;;;;2.70;2.50;;;26.70;51.50;;;;;;4976719;28;20467;-82
2021/04/21 13:00:33;;;;;;;3.90;2.50;;;26.90;51.50;;;;;;4976565;28;20480;-82
2021/04/21 13:03:00;;;;;;;2.40;2.20;;;27.00;51.40;;;;;;4976934;28;20544;-82
2021/04/21 13:05:47;;;;;;;2.70;2.17;;;27.10;51.30;;;;;;4976509;28;20453;-82
2021/04/21 13:08:24;;;;;;;2.67;2.47;;;27.30;51.30;;;;;;4976693;28;20446;-82
2021/04/21 13:10:53;;;;;;;5.00;2.30;;;27.30;51.40;;;;;;4976653;28;20965;-83
2021/04/21 13:13:27;;;;;;;3.07;2.10;;;27.10;51.40;;;;;;4976558;28;20459;-82
2021/04/21 13:15:55;;;;;;;2.90;2.70;;;27.20;51.40;;;;;;4976417;28;20443;-82
2021/04/21 13:18:21;;;;;;;1.90;1.80;;;27.20;51.40;;;;;;4976336;28;20474;-82